createdAt,value
2023-03-13T00:00:22.305Z,4.199
2023-03-13T00:01:22.765Z,4
2023-03-13T00:02:21.610Z,4.300
2023-03-13T00:03:21.445Z,4.099
2023-03-13T00:05:21.682Z,3.900
2023-03-13T00:06:21.856Z,4
2023-03-13T00:07:21.045Z,4.099
2023-03-13T00:11:19.929Z,4.300
2023-03-13T00:13:21.252Z,4.099
2023-03-13T00:14:21.475Z,4.5
2023-03-13T00:17:22.124Z,4.300
2023-03-13T00:18:21.570Z,4.199
2023-03-13T00:19:21.419Z,4
2023-03-13T00:20:21.977Z,4.099
2023-03-13T00:21:21.270Z,3.900
2023-03-13T00:23:22.303Z,4.5
2023-03-13T00:24:21.562Z,3.900
2023-03-13T00:25:22.399Z,4.400
2023-03-13T00:26:21.827Z,3.900
2023-03-13T00:27:21.396Z,4.199
2023-03-13T00:28:21.525Z,4.300
2023-03-13T00:30:21.704Z,4
2023-03-13T00:32:21.414Z,4.400
2023-03-13T00:33:21.503Z,4
2023-03-13T00:34:21.655Z,3.799
2023-03-13T00:36:21.308Z,3.900
2023-03-13T00:37:21.465Z,4.199
2023-03-13T00:38:22.048Z,3.799
2023-03-13T00:39:21.453Z,4.199
2023-03-13T00:40:21.881Z,3.900
2023-03-13T00:41:21.370Z,3.799
2023-03-13T00:43:21.517Z,3.900
2023-03-13T00:44:21.747Z,4.099
2023-03-13T00:45:21.719Z,3.900
2023-03-13T00:46:21.662Z,4.199
2023-03-13T00:47:21.512Z,3.599
2023-03-13T00:48:21.586Z,4.099
2023-03-13T00:49:21.908Z,3.599
2023-03-13T00:50:21.578Z,3.5
2023-03-13T00:51:21.835Z,3.599
2023-03-13T00:53:21.383Z,3.5
2023-03-13T00:54:21.578Z,3.400
2023-03-13T00:55:21.662Z,3.900
2023-03-13T00:56:22.108Z,3.700
2023-03-13T00:59:21.654Z,3.900
2023-03-13T01:00:22.368Z,3.799
2023-03-13T01:01:24.941Z,3.599
2023-03-13T01:02:22.001Z,3.299
2023-03-13T01:03:22.184Z,3.5
2023-03-13T01:04:21.995Z,3.599
2023-03-13T01:05:21.869Z,3.700
2023-03-13T01:06:21.428Z,3.5
2023-03-13T01:07:21.980Z,3.400
2023-03-13T01:08:21.430Z,3.5
2023-03-13T01:09:21.495Z,4
2023-03-13T01:10:21.760Z,3.700
2023-03-13T01:11:21.607Z,3.299
2023-03-13T01:12:21.937Z,3.700
2023-03-13T01:13:22.081Z,3.099
2023-03-13T01:14:21.350Z,3.599
2023-03-13T01:15:22.077Z,3.400
2023-03-13T01:16:21.842Z,3.200
2023-03-13T01:17:21.584Z,3.400
2023-03-13T01:18:21.685Z,3.599
2023-03-13T01:19:21.702Z,3.099
2023-03-13T01:20:21.830Z,3.200
2023-03-13T01:21:21.851Z,3.599
2023-03-13T01:22:21.948Z,3
2023-03-13T01:23:21.335Z,3.200
2023-03-13T01:24:21.386Z,3.400
2023-03-13T01:25:21.782Z,3.5
2023-03-13T01:26:21.706Z,3.200
2023-03-13T01:28:21.458Z,2.900
2023-03-13T01:29:21.463Z,2.5
2023-03-13T01:30:22.266Z,3.099
2023-03-13T01:33:21.745Z,3
2023-03-13T01:35:21.206Z,2.900
2023-03-13T01:36:21.795Z,2.799
2023-03-13T01:37:22.038Z,2.900
2023-03-13T01:38:21.161Z,2.200
2023-03-13T01:39:21.778Z,2.900
2023-03-13T01:40:21.349Z,2.700
2023-03-13T01:41:21.521Z,2.5
2023-03-13T01:42:26.485Z,2.900
2023-03-13T01:43:26.914Z,2.700
2023-03-13T01:44:26.770Z,2.5
2023-03-13T01:46:26.726Z,2.700
2023-03-13T01:48:21.130Z,2.599
2023-03-13T01:49:21.196Z,2.200
2023-03-13T01:51:21.678Z,2.299
2023-03-13T01:52:21.460Z,2.5
2023-03-13T01:53:21.654Z,2.400
2023-03-13T01:54:21.853Z,2.299
2023-03-13T01:55:21.778Z,2.200
2023-03-13T01:56:21.995Z,2.099
2023-03-13T01:58:21.840Z,2
2023-03-13T01:59:21.099Z,1.899
2023-03-13T02:00:22.521Z,2
2023-03-13T02:02:21.603Z,1.799
2023-03-13T02:03:21.781Z,1.899
2023-03-13T02:04:21.451Z,1.799
2023-03-13T02:05:21.760Z,1.899
2023-03-13T02:06:21.667Z,1.600
2023-03-13T02:07:21.633Z,1.5
2023-03-13T02:08:21.612Z,1.399
2023-03-13T02:09:21.692Z,1.299
2023-03-13T02:10:21.829Z,1.399
2023-03-13T02:11:22.043Z,1.600
2023-03-13T02:12:21.358Z,1.399
2023-03-13T02:13:21.524Z,1.5
2023-03-13T02:14:22.436Z,1.700
2023-03-13T02:16:21.277Z,1.399
2023-03-13T02:17:21.854Z,1.5
2023-03-13T02:18:22.074Z,1.600
2023-03-13T02:19:21.357Z,1.399
2023-03-13T02:20:21.706Z,1.5
2023-03-13T02:23:21.654Z,1.600
2023-03-13T02:24:21.262Z,1.5
2023-03-13T02:26:22.229Z,1.299
2023-03-13T02:27:21.994Z,1.600
2023-03-13T02:28:21.185Z,1.5
2023-03-13T02:30:21.549Z,1.399
2023-03-13T02:31:21.801Z,1.5
2023-03-13T02:32:22.177Z,1.299
2023-03-13T02:34:21.536Z,1.200
2023-03-13T02:35:22.593Z,1.299
2023-03-13T02:36:21.618Z,1.399
2023-03-13T02:37:21.838Z,1.200
2023-03-13T02:38:21.725Z,1.100
2023-03-13T02:40:21.932Z,1.200
2023-03-13T02:41:21.545Z,1
2023-03-13T02:43:21.660Z,0.899
2023-03-13T02:45:21.707Z,0.800
2023-03-13T02:46:21.875Z,0.899
2023-03-13T02:47:21.409Z,0.800
2023-03-13T02:48:21.451Z,0.899
2023-03-13T02:49:21.599Z,0.600
2023-03-13T02:50:21.801Z,0.800
2023-03-13T02:51:21.713Z,0.699
2023-03-13T02:52:22.085Z,1
2023-03-13T02:53:21.548Z,0.600
2023-03-13T02:54:22.355Z,0.800
2023-03-13T02:55:21.797Z,0.699
2023-03-13T02:57:21.723Z,0.600
2023-03-13T03:01:23.383Z,0.600
2023-03-13T03:02:21.537Z,0.5
2023-03-13T03:03:21.962Z,0.600
2023-03-13T03:05:22.171Z,0.5
2023-03-13T03:07:21.370Z,0.600
2023-03-13T03:08:21.647Z,0.5
2023-03-13T03:09:22.072Z,0.600
2023-03-13T03:11:21.705Z,0.300
2023-03-13T03:12:21.503Z,0.5
2023-03-13T03:14:21.438Z,0.300
2023-03-13T03:15:22.324Z,0.400
2023-03-13T03:18:21.363Z,0.5
2023-03-13T03:19:21.889Z,0.400
2023-03-13T03:20:22.086Z,0.300
2023-03-13T03:21:21.284Z,0.5
2023-03-13T03:22:21.534Z,0.600
2023-03-13T03:23:21.410Z,0.699
2023-03-13T03:24:21.494Z,0.400
2023-03-13T03:26:21.589Z,0.300
2023-03-13T03:27:22.092Z,0.600
2023-03-13T03:28:21.467Z,0.5
2023-03-13T03:29:21.871Z,0.400
2023-03-13T03:30:21.636Z,0.300
2023-03-13T03:32:21.660Z,0.400
2023-03-13T03:35:21.217Z,0.5
2023-03-13T03:37:21.514Z,0.400
2023-03-13T03:38:21.343Z,0.5
2023-03-13T03:39:21.650Z,0.400
2023-03-13T03:42:21.665Z,0.300
2023-03-13T03:44:21.269Z,0.5
2023-03-13T03:45:22.188Z,0.400
2023-03-13T03:46:21.820Z,0.300
2023-03-13T03:48:21.496Z,0.400
2023-03-13T03:49:21.396Z,0.300
2023-03-13T03:51:21.433Z,0.5
2023-03-13T03:52:21.712Z,0.400
2023-03-13T03:53:21.669Z,0.300
2023-03-13T03:54:22.198Z,0.200
2023-03-13T03:55:20.971Z,0.400
2023-03-13T03:56:21.152Z,0.300
2023-03-13T03:58:21.817Z,0.200
2023-03-13T04:00:22.262Z,0.400
2023-03-13T04:01:21.710Z,0.300
2023-03-13T04:02:21.357Z,0.200
2023-03-13T04:04:21.944Z,0.300
2023-03-13T04:05:27.011Z,0.200
2023-03-13T04:06:21.635Z,0.300
2023-03-13T04:09:22.030Z,0.100
2023-03-13T04:10:21.956Z,0.200
2023-03-13T04:13:21.883Z,0.300
2023-03-13T04:14:21.136Z,0.100
2023-03-13T04:16:21.743Z,0.200
2023-03-13T04:17:29.357Z,0.100
2023-03-13T04:18:21.527Z,0.200
2023-03-13T04:20:21.449Z,0.300
2023-03-13T04:21:21.479Z,0.200
2023-03-13T04:22:21.703Z,0.100
2023-03-13T04:23:21.816Z,0.300
2023-03-13T04:25:21.949Z,0.200
2023-03-13T04:28:21.817Z,0.300
2023-03-13T04:30:22.303Z,0.200
2023-03-13T04:32:21.772Z,0.100
2023-03-13T04:33:21.741Z,0.200
2023-03-13T04:34:22.175Z,0.100
2023-03-13T04:35:21.753Z,0.200
2023-03-13T04:36:22.201Z,0.300
2023-03-13T04:38:21.388Z,0.200
2023-03-13T04:39:21.660Z,0.300
2023-03-13T04:40:21.945Z,0.200
2023-03-13T04:41:21.626Z,0.400
2023-03-13T04:42:21.384Z,0.100
2023-03-13T04:43:21.420Z,0.200
2023-03-13T04:45:21.940Z,0.300
2023-03-13T04:47:21.302Z,0.200
2023-03-13T04:50:22.485Z,0.300
2023-03-13T04:52:21.215Z,0.100
2023-03-13T04:53:21.614Z,0.300
2023-03-13T04:57:21.404Z,0.5
2023-03-13T04:58:21.704Z,0.400
2023-03-13T04:59:21.919Z,0.300
2023-03-13T05:01:22.011Z,0.400
2023-03-13T05:03:21.795Z,0.300
2023-03-13T05:05:22.099Z,0.5
2023-03-13T05:06:21.615Z,0.200
2023-03-13T05:07:21.829Z,0.5
2023-03-13T05:08:21.735Z,0.200
2023-03-13T05:11:21.931Z,0.400
2023-03-13T05:12:21.637Z,0.300
2023-03-13T05:16:22.021Z,0.5
2023-03-13T05:17:22.208Z,0.400
2023-03-13T05:19:21.607Z,0.5
2023-03-13T05:20:22.069Z,0.300
2023-03-13T05:22:21.813Z,0.400
2023-03-13T05:24:21.770Z,0.300
2023-03-13T05:26:21.860Z,0.400
2023-03-13T05:27:22.233Z,0.5
2023-03-13T05:28:21.718Z,0.400
2023-03-13T05:30:22.063Z,0.5
2023-03-13T05:31:22.521Z,0.400
2023-03-13T05:32:22.298Z,0.300
2023-03-13T05:34:22.111Z,0.400
2023-03-13T05:35:22.218Z,0.5
2023-03-13T05:37:21.891Z,0.600
2023-03-13T05:38:21.717Z,0.400
2023-03-13T05:39:21.619Z,0.300
2023-03-13T05:40:22.148Z,0.5
2023-03-13T05:41:21.732Z,0.400
2023-03-13T05:42:21.312Z,0.5
2023-03-13T05:43:21.546Z,0.300
2023-03-13T05:44:21.872Z,0.200
2023-03-13T05:45:22.522Z,0.5
2023-03-13T05:47:21.638Z,0.400
2023-03-13T05:52:21.809Z,0.5
2023-03-13T05:53:21.340Z,0.400
2023-03-13T05:54:21.664Z,0.600
2023-03-13T05:55:22.063Z,0.400
2023-03-13T05:56:22.100Z,0.5
2023-03-13T05:57:21.975Z,0.400
2023-03-13T05:59:22.194Z,0.300
2023-03-13T06:00:23.217Z,0.400
2023-03-13T06:02:21.912Z,0.5
2023-03-13T06:03:21.814Z,0.699
2023-03-13T06:04:22.055Z,0.600
2023-03-13T06:05:22.224Z,0.400
2023-03-13T06:06:21.751Z,0.699
2023-03-13T06:08:21.873Z,0.600
2023-03-13T06:10:22.300Z,0.899
2023-03-13T06:12:23.194Z,0.699
2023-03-13T06:13:21.852Z,0.800
2023-03-13T06:17:22.345Z,1
2023-03-13T06:18:22.141Z,0.800
2023-03-13T06:19:21.999Z,1
2023-03-13T06:20:22.300Z,0.899
2023-03-13T06:26:21.608Z,1.100
2023-03-13T06:28:22.478Z,1.200
2023-03-13T06:30:22.164Z,1
2023-03-13T06:31:22.034Z,1.100
2023-03-13T06:32:22.476Z,1.299
2023-03-13T06:37:22.055Z,1.5
2023-03-13T06:38:21.824Z,1.200
2023-03-13T06:39:22.088Z,1.299
2023-03-13T06:40:22.089Z,1.600
2023-03-13T06:41:21.749Z,1.399
2023-03-13T06:43:21.957Z,1.600
2023-03-13T06:44:28.345Z,1.200
2023-03-13T06:45:22.838Z,1.799
2023-03-13T06:46:29.865Z,1.5
2023-03-13T06:47:21.717Z,1.700
2023-03-13T06:49:22.219Z,1.600
2023-03-13T06:50:22.500Z,1.799
2023-03-13T06:51:22.165Z,1.700
2023-03-13T06:52:26.497Z,1.899
2023-03-13T06:54:22.335Z,1.799
2023-03-13T06:55:22.098Z,2
2023-03-13T06:56:22.255Z,1.799
2023-03-13T06:57:22.347Z,1.600
2023-03-13T06:58:32.125Z,1.799
2023-03-13T07:00:36.874Z,1.899
2023-03-13T07:01:22.707Z,2.200
2023-03-13T07:02:23.014Z,2.099
2023-03-13T07:03:22.982Z,1.700
2023-03-13T07:04:23.177Z,2.099
2023-03-13T07:05:22.642Z,1.799
2023-03-13T07:06:24.306Z,2
2023-03-13T07:07:31.202Z,1.700
2023-03-13T07:08:22.904Z,2
2023-03-13T07:09:22.110Z,1.799
2023-03-13T07:10:24.060Z,1.899
2023-03-13T07:12:22.313Z,1.799
2023-03-13T07:13:21.921Z,2
2023-03-13T07:14:21.903Z,1.799
2023-03-13T07:15:22.947Z,1.899
2023-03-13T07:17:22.131Z,1.799
2023-03-13T07:18:22.167Z,1.700
2023-03-13T07:19:22.315Z,2.099
2023-03-13T07:20:22.534Z,2
2023-03-13T07:21:21.837Z,1.899
2023-03-13T07:23:22.338Z,1.799
2023-03-13T07:24:22.750Z,2
2023-03-13T07:26:22.582Z,1.700
2023-03-13T07:27:21.855Z,1.899
2023-03-13T07:28:22.069Z,2
2023-03-13T07:29:21.782Z,1.799
2023-03-13T07:30:22.410Z,2.099
2023-03-13T07:32:22.432Z,1.799
2023-03-13T07:33:22.797Z,2.099
2023-03-13T07:34:22.098Z,1.799
2023-03-13T07:35:22.225Z,1.700
2023-03-13T07:36:22.449Z,2
2023-03-13T07:37:22.284Z,1.799
2023-03-13T07:38:22.577Z,1.700
2023-03-13T07:39:22.175Z,1.799
2023-03-13T07:41:22.319Z,1.899
2023-03-13T07:42:22.686Z,2.099
2023-03-13T07:44:22.479Z,1.799
2023-03-13T07:45:22.731Z,1.700
2023-03-13T07:46:22.282Z,2.200
2023-03-13T07:47:21.928Z,2
2023-03-13T07:48:22.268Z,2.200
2023-03-13T07:49:22.536Z,1.799
2023-03-13T07:51:33.438Z,2
2023-03-13T07:52:22.266Z,1.899
2023-03-13T07:54:22.599Z,2.099
2023-03-13T07:55:22.290Z,2
2023-03-13T07:56:22.129Z,1.899
2023-03-13T07:58:22.450Z,2.200
2023-03-13T08:00:23.098Z,1.700
2023-03-13T08:01:24.443Z,2
2023-03-13T08:02:21.819Z,2.200
2023-03-13T08:03:22.704Z,2
2023-03-13T08:04:22.067Z,2.200
2023-03-13T08:05:22.082Z,1.899
2023-03-13T08:07:22.142Z,2.200
2023-03-13T08:08:22.403Z,1.799
2023-03-13T08:09:22.326Z,1.899
2023-03-13T08:10:23.194Z,2
2023-03-13T08:11:22.023Z,2.200
2023-03-13T08:12:22.334Z,2.099
2023-03-13T08:15:23.052Z,2
2023-03-13T08:16:22.414Z,1.899
2023-03-13T08:17:22.017Z,2.299
2023-03-13T08:18:22.501Z,2.099
2023-03-13T08:19:22.414Z,2.299
2023-03-13T08:22:22.548Z,2.099
2023-03-13T08:24:22.694Z,2.299
2023-03-13T08:25:22.627Z,2.400
2023-03-13T08:26:22.384Z,2.099
2023-03-13T08:27:22.106Z,2.599
2023-03-13T08:28:22.886Z,2.099
2023-03-13T08:29:22.390Z,2.5
2023-03-13T08:30:22.196Z,2.200
2023-03-13T08:32:22.467Z,2
2023-03-13T08:33:22.108Z,2.299
2023-03-13T08:34:22.319Z,2.099
2023-03-13T08:35:23.015Z,2
2023-03-13T08:37:21.865Z,2.299
2023-03-13T08:38:21.932Z,2
2023-03-13T08:39:22.262Z,2.099
2023-03-13T08:40:22.000Z,2
2023-03-13T08:41:22.525Z,2.200
2023-03-13T08:43:24.150Z,1.799
2023-03-13T08:45:23.684Z,2.099
2023-03-13T08:48:21.783Z,1.799
2023-03-13T08:49:21.754Z,2
2023-03-13T08:50:22.583Z,2.099
2023-03-13T08:51:22.352Z,2
2023-03-13T08:53:21.915Z,1.700
2023-03-13T08:54:22.281Z,1.899
2023-03-13T08:55:22.563Z,2
2023-03-13T08:56:22.020Z,1.700
2023-03-13T08:57:22.321Z,1.600
2023-03-13T09:02:22.285Z,1.5
2023-03-13T09:04:21.999Z,1.600
2023-03-13T09:05:22.499Z,1.399
2023-03-13T09:07:27.204Z,1.5
2023-03-13T09:08:22.395Z,1.399
2023-03-13T09:09:23.236Z,1.299
2023-03-13T09:11:22.008Z,1.399
2023-03-13T09:12:30.690Z,1.5
2023-03-13T09:13:22.188Z,1.399
2023-03-13T09:14:22.468Z,1.200
2023-03-13T09:16:22.619Z,1.5
2023-03-13T09:17:22.376Z,1.299
2023-03-13T09:18:21.964Z,1.399
2023-03-13T09:20:21.760Z,1.600
2023-03-13T09:21:22.316Z,1.200
2023-03-13T09:22:22.054Z,1.5
2023-03-13T09:23:22.226Z,1.399
2023-03-13T09:25:22.630Z,1.5
2023-03-13T09:26:23.444Z,1.299
2023-03-13T09:27:35.826Z,1.399
2023-03-13T09:28:22.167Z,1.299
2023-03-13T09:29:22.226Z,1.600
2023-03-13T09:30:22.830Z,1.399
2023-03-13T09:31:21.897Z,1.299
2023-03-13T09:32:22.342Z,1.200
2023-03-13T09:33:22.081Z,1.399
2023-03-13T09:34:22.471Z,1.600
2023-03-13T09:35:22.458Z,1.5
2023-03-13T09:37:22.223Z,1.600
2023-03-13T09:38:22.184Z,1.5
2023-03-13T09:39:21.709Z,1.600
2023-03-13T09:40:22.717Z,1.399
2023-03-13T09:41:22.014Z,1.600
2023-03-13T09:42:22.296Z,1.700
2023-03-13T09:43:22.766Z,1.600
2023-03-13T09:44:22.049Z,1.5
2023-03-13T09:45:22.725Z,1.799
2023-03-13T09:46:22.662Z,1.5
2023-03-13T09:47:21.779Z,1.600
2023-03-13T09:48:21.940Z,1.399
2023-03-13T09:49:22.248Z,1.5
2023-03-13T09:51:22.345Z,1.700
2023-03-13T09:52:22.067Z,1.5
2023-03-13T09:54:21.868Z,1.700
2023-03-13T09:55:21.968Z,1.5
2023-03-13T09:56:22.257Z,1.799
2023-03-13T09:57:22.475Z,1.399
2023-03-13T09:58:22.019Z,1.200
2023-03-13T09:59:22.279Z,1.600
2023-03-13T10:00:23.146Z,1.399
2023-03-13T10:01:22.548Z,1.200
2023-03-13T10:02:22.379Z,1.399
2023-03-13T10:03:22.998Z,1.5
2023-03-13T10:04:22.707Z,1.600
2023-03-13T10:05:22.059Z,1.299
2023-03-13T10:06:22.352Z,1.200
2023-03-13T10:07:22.661Z,1.299
2023-03-13T10:09:22.105Z,1
2023-03-13T10:10:22.473Z,1.200
2023-03-13T10:11:21.979Z,1.299
2023-03-13T10:13:22.252Z,1.399
2023-03-13T10:14:22.654Z,1.200
2023-03-13T10:15:22.327Z,1.299
2023-03-13T10:16:22.294Z,1
2023-03-13T10:17:22.093Z,1.100
2023-03-13T10:18:22.577Z,1
2023-03-13T10:19:22.622Z,1.100
2023-03-13T10:20:23.421Z,1.200
2023-03-13T10:21:23.069Z,1.100
2023-03-13T10:22:22.387Z,1
2023-03-13T10:23:22.820Z,1.200
2023-03-13T10:24:22.952Z,1
2023-03-13T10:25:22.547Z,0.899
2023-03-13T10:26:22.779Z,1
2023-03-13T10:29:22.340Z,0.800
2023-03-13T10:30:22.434Z,0.899
2023-03-13T10:32:23.100Z,0.800
2023-03-13T10:33:22.909Z,0.899
2023-03-13T10:34:22.902Z,0.800
2023-03-13T10:35:23.017Z,1
2023-03-13T10:36:23.297Z,0.699
2023-03-13T10:37:22.148Z,0.899
2023-03-13T10:38:25.299Z,0.800
2023-03-13T10:39:22.688Z,1
2023-03-13T10:40:22.209Z,0.899
2023-03-13T10:43:22.577Z,0.699
2023-03-13T10:46:22.264Z,0.5
2023-03-13T10:47:22.986Z,0.800
2023-03-13T10:48:21.986Z,0.699
2023-03-13T10:49:22.354Z,0.600
2023-03-13T10:50:22.058Z,0.699
2023-03-13T10:53:22.324Z,0.600
2023-03-13T10:55:22.799Z,0.5
2023-03-13T10:56:22.654Z,0.600
2023-03-13T10:57:22.005Z,0.5
2023-03-13T10:59:23.320Z,0.600
2023-03-13T11:00:23.854Z,0.5
2023-03-13T11:02:23.422Z,0.400
2023-03-13T11:05:23.135Z,0.5
2023-03-13T11:06:22.510Z,0.400
2023-03-13T11:09:22.289Z,0.300
2023-03-13T11:10:22.723Z,0.400
2023-03-13T11:11:22.328Z,0.600
2023-03-13T11:12:21.630Z,0.400
2023-03-13T11:13:35.636Z,0.300
2023-03-13T11:14:22.337Z,0.400
2023-03-13T11:17:22.919Z,0.300
2023-03-13T11:19:22.472Z,0.400
2023-03-13T11:21:23.126Z,0.200
2023-03-13T11:22:22.744Z,0.300
2023-03-13T11:23:22.385Z,0.200
2023-03-13T11:24:22.427Z,0.400
2023-03-13T11:25:22.357Z,0.300
2023-03-13T11:28:22.479Z,0.400
2023-03-13T11:29:22.012Z,0.300
2023-03-13T11:31:21.775Z,0.400
2023-03-13T11:32:22.821Z,0.200
2023-03-13T11:33:22.835Z,0.400
2023-03-13T11:34:21.987Z,0.300
2023-03-13T11:37:22.268Z,0.200
2023-03-13T11:38:30.102Z,0.300
2023-03-13T11:39:21.962Z,0.5
2023-03-13T11:40:22.915Z,0.200
2023-03-13T11:41:22.735Z,0.400
2023-03-13T11:43:25.671Z,0.5
2023-03-13T11:44:21.874Z,0.300
2023-03-13T11:45:23.516Z,0.699
2023-03-13T11:46:23.135Z,0.400
2023-03-13T11:47:22.307Z,0.5
2023-03-13T11:49:22.651Z,0.400
2023-03-13T11:51:22.343Z,0.5
2023-03-13T11:57:22.615Z,0.699
2023-03-13T11:58:22.095Z,0.600
2023-03-13T11:59:21.990Z,0.5
2023-03-13T12:00:24.338Z,0.699
2023-03-13T12:01:22.653Z,0.5
2023-03-13T12:02:23.221Z,0.800
2023-03-13T12:03:22.535Z,0.699
2023-03-13T12:04:22.040Z,0.899
2023-03-13T12:06:28.268Z,0.699
2023-03-13T12:07:22.696Z,0.800
2023-03-13T12:08:22.115Z,0.699
2023-03-13T12:09:22.265Z,0.5
2023-03-13T12:11:22.389Z,0.800
2023-03-13T12:12:22.010Z,0.600
2023-03-13T12:13:22.499Z,0.5
2023-03-13T12:14:21.954Z,0.699
2023-03-13T12:16:22.154Z,0.600
2023-03-13T12:17:22.773Z,0.699
2023-03-13T12:19:22.217Z,0.600
2023-03-13T12:20:22.104Z,0.800
2023-03-13T12:21:22.145Z,0.699
2023-03-13T12:23:22.218Z,0.600
2023-03-13T12:24:22.445Z,0.899
2023-03-13T12:25:22.414Z,0.600
2023-03-13T12:26:22.385Z,0.800
2023-03-13T12:27:21.589Z,0.699
2023-03-13T12:28:23.898Z,0.800
2023-03-13T12:29:22.052Z,0.699
2023-03-13T12:30:22.701Z,0.600
2023-03-13T12:31:22.352Z,0.699
2023-03-13T12:33:24.065Z,0.899
2023-03-13T12:35:22.240Z,0.699
2023-03-13T12:36:22.429Z,0.899
2023-03-13T12:38:22.320Z,0.800
2023-03-13T12:40:22.553Z,0.899
2023-03-13T12:41:22.177Z,0.699
2023-03-13T12:43:22.258Z,0.800
2023-03-13T12:44:21.777Z,0.699
2023-03-13T12:45:22.556Z,0.899
2023-03-13T12:46:22.172Z,0.699
2023-03-13T12:47:22.102Z,0.899
2023-03-13T12:48:22.745Z,0.699
2023-03-13T12:49:22.316Z,0.800
2023-03-13T12:51:22.458Z,0.899
2023-03-13T12:52:22.433Z,0.699
2023-03-13T12:53:22.622Z,0.5
2023-03-13T12:54:22.208Z,0.699
2023-03-13T12:55:22.423Z,0.600
2023-03-13T12:56:22.074Z,0.800
2023-03-13T12:57:22.274Z,0.699
2023-03-13T12:58:22.541Z,0.800
2023-03-13T12:59:22.421Z,0.699
2023-03-13T13:00:23.763Z,0.800
2023-03-13T13:02:22.873Z,0.600
2023-03-13T13:03:22.625Z,0.800
2023-03-13T13:04:22.752Z,0.899
2023-03-13T13:05:22.517Z,0.800
2023-03-13T13:06:22.819Z,0.899
2023-03-13T13:07:22.997Z,0.800
2023-03-13T13:09:22.422Z,0.899
2023-03-13T13:10:21.897Z,1
2023-03-13T13:12:22.378Z,0.400
2023-03-13T13:13:21.679Z,0.800
2023-03-13T13:14:21.647Z,0.600
2023-03-13T13:15:22.718Z,0.699
2023-03-13T13:16:22.881Z,0.899
2023-03-13T13:17:22.835Z,0.600
2023-03-13T13:19:22.043Z,0.5
2023-03-13T13:20:22.665Z,0.600
2023-03-13T13:21:22.816Z,0.699
2023-03-13T13:22:22.505Z,0.600
2023-03-13T13:23:22.250Z,0.699
2023-03-13T13:24:22.444Z,0.800
2023-03-13T13:25:22.803Z,0.699
2023-03-13T13:26:22.895Z,0.600
2023-03-13T13:28:22.397Z,0.699
2023-03-13T13:29:22.540Z,0.600
2023-03-13T13:31:22.503Z,0.699
2023-03-13T13:32:22.514Z,0.5
2023-03-13T13:33:22.441Z,0.600
2023-03-13T13:34:22.362Z,0.400
2023-03-13T13:35:22.665Z,0.5
2023-03-13T13:37:22.344Z,0.600
2023-03-13T13:38:22.654Z,0.5
2023-03-13T13:39:22.231Z,0.600
2023-03-13T13:40:22.653Z,0.699
2023-03-13T13:41:23.340Z,0.5
2023-03-13T13:42:22.366Z,0.600
2023-03-13T13:44:22.929Z,0.5
2023-03-13T13:46:22.650Z,0.600
2023-03-13T13:48:22.297Z,0.699
2023-03-13T13:49:22.572Z,0.600
2023-03-13T13:50:22.405Z,0.400
2023-03-13T13:51:22.317Z,0.600
2023-03-13T13:52:22.407Z,0.300
2023-03-13T13:54:22.771Z,0.400
2023-03-13T13:58:23.284Z,0.300
2023-03-13T13:59:23.041Z,0.400
2023-03-13T14:01:23.717Z,0.300
2023-03-13T14:02:22.523Z,0.5
2023-03-13T14:03:22.435Z,0.400
2023-03-13T14:04:22.534Z,0.200
2023-03-13T14:05:22.835Z,0.300
2023-03-13T14:07:22.241Z,0.200
2023-03-13T14:08:22.441Z,0.5
2023-03-13T14:09:37.481Z,0.400
2023-03-13T14:10:22.218Z,0.300
2023-03-13T14:12:22.453Z,0.400
2023-03-13T14:13:22.184Z,0.5
2023-03-13T14:14:22.443Z,0.400
2023-03-13T14:15:22.524Z,0.300
2023-03-13T14:16:24.336Z,0.200
2023-03-13T14:18:22.511Z,0.300
2023-03-13T14:19:22.568Z,0.400
2023-03-13T14:20:22.700Z,0.300
2023-03-13T14:22:22.479Z,0.200
2023-03-13T14:24:22.469Z,0.300
2023-03-13T14:25:23.005Z,0.200
2023-03-13T14:27:22.374Z,0.400
2023-03-13T14:28:22.755Z,0.300
2023-03-13T14:29:22.433Z,0.400
2023-03-13T14:32:23.028Z,0.200
2023-03-13T14:33:21.916Z,0.300
2023-03-13T14:35:22.180Z,0.5
2023-03-13T14:36:22.395Z,0.400
2023-03-13T14:38:22.896Z,0.300
2023-03-13T14:40:22.639Z,0.400
2023-03-13T14:41:22.647Z,0.300
2023-03-13T14:43:23.171Z,0.400
2023-03-13T14:45:21.939Z,0.300
2023-03-13T14:46:23.236Z,0.400
2023-03-13T14:49:22.421Z,0.600
2023-03-13T14:50:22.425Z,0.300
2023-03-13T14:51:22.772Z,0.5
2023-03-13T14:52:22.582Z,0.400
2023-03-13T14:55:23.029Z,0.699
2023-03-13T14:56:22.472Z,0.400
2023-03-13T14:59:22.638Z,0.600
2023-03-13T15:00:23.602Z,0.699
2023-03-13T15:02:25.338Z,0.400
2023-03-13T15:03:22.618Z,0.600
2023-03-13T15:06:23.029Z,0.699
2023-03-13T15:07:22.711Z,0.600
2023-03-13T15:08:22.519Z,0.699
2023-03-13T15:10:23.238Z,0.800
2023-03-13T15:11:22.993Z,0.600
2023-03-13T15:12:22.926Z,0.699
2023-03-13T15:13:22.761Z,0.800
2023-03-13T15:14:23.289Z,0.5
2023-03-13T15:15:22.865Z,0.800
2023-03-13T15:17:23.001Z,0.600
2023-03-13T15:18:22.635Z,0.699
2023-03-13T15:19:22.661Z,0.800
2023-03-13T15:21:22.652Z,1
2023-03-13T15:22:22.479Z,0.699
2023-03-13T15:23:22.800Z,0.5
2023-03-13T15:24:22.526Z,0.699
2023-03-13T15:25:23.298Z,0.899
2023-03-13T15:26:22.914Z,0.699
2023-03-13T15:27:22.844Z,1
2023-03-13T15:28:22.272Z,0.699
2023-03-13T15:29:22.326Z,1
2023-03-13T15:30:22.995Z,0.699
2023-03-13T15:31:22.634Z,1
2023-03-13T15:32:23.143Z,0.899
2023-03-13T15:33:21.914Z,0.800
2023-03-13T15:34:22.760Z,0.899
2023-03-13T15:35:23.505Z,0.800
2023-03-13T15:37:22.406Z,0.899
2023-03-13T15:38:22.093Z,1.100
2023-03-13T15:40:22.886Z,0.899
2023-03-13T15:41:22.889Z,1
2023-03-13T15:42:22.435Z,0.899
2023-03-13T15:43:22.810Z,1
2023-03-13T15:44:22.647Z,1.100
2023-03-13T15:47:22.565Z,1
2023-03-13T15:49:22.373Z,1.200
2023-03-13T15:50:23.459Z,1.100
2023-03-13T15:52:22.502Z,0.800
2023-03-13T15:53:22.106Z,1.399
2023-03-13T15:54:22.342Z,1.299
2023-03-13T15:55:22.731Z,0.800
2023-03-13T15:56:21.949Z,1
2023-03-13T15:57:22.469Z,1.200
2023-03-13T15:58:22.480Z,1.399
2023-03-13T15:59:22.239Z,1.200
2023-03-13T16:00:23.051Z,1.399
2023-03-13T16:01:22.524Z,1.299
2023-03-13T16:02:22.379Z,1.100
2023-03-13T16:04:22.269Z,1
2023-03-13T16:05:22.058Z,1.299
2023-03-13T16:06:22.622Z,1.200
2023-03-13T16:07:22.115Z,1.399
2023-03-13T16:08:34.833Z,1.299
2023-03-13T16:09:22.578Z,1.399
2023-03-13T16:10:25.080Z,1.100
2023-03-13T16:12:22.176Z,1.200
2023-03-13T16:14:22.613Z,1.299
2023-03-13T16:15:22.472Z,1.200
2023-03-13T16:18:22.891Z,1.299
2023-03-13T16:20:22.155Z,1.100
2023-03-13T16:21:21.808Z,1.200
2023-03-13T16:22:22.164Z,1.299
2023-03-13T16:23:22.620Z,1.399
2023-03-13T16:24:30.270Z,1.200
2023-03-13T16:27:22.404Z,1.399
2023-03-13T16:28:23.158Z,1.200
2023-03-13T16:30:23.180Z,1.399
2023-03-13T16:31:21.954Z,1.200
2023-03-13T16:34:22.132Z,1.299
2023-03-13T16:35:22.844Z,1.100
2023-03-13T16:36:22.479Z,1.299
2023-03-13T16:37:21.957Z,1.5
2023-03-13T16:38:22.098Z,1.600
2023-03-13T16:39:22.441Z,1
2023-03-13T16:40:23.031Z,1.299
2023-03-13T16:41:22.363Z,1.399
2023-03-13T16:42:22.782Z,1.299
2023-03-13T16:43:22.931Z,1.399
2023-03-13T16:44:22.680Z,1.100
2023-03-13T16:47:22.745Z,1.299
2023-03-13T16:48:21.740Z,1.100
2023-03-13T16:49:22.429Z,1.299
2023-03-13T16:50:22.210Z,1
2023-03-13T16:51:22.156Z,1.100
2023-03-13T16:52:41.762Z,1.200
2023-03-13T16:53:22.504Z,1.5
2023-03-13T16:54:22.470Z,1.299
2023-03-13T16:55:22.811Z,1.100
2023-03-13T16:57:22.516Z,1.200
2023-03-13T16:59:22.626Z,1.299
2023-03-13T17:00:23.852Z,1.100
2023-03-13T17:01:23.050Z,1.399
2023-03-13T17:02:23.200Z,1.200
2023-03-13T17:03:22.007Z,1.399
2023-03-13T17:06:22.815Z,1.299
2023-03-13T17:08:22.777Z,1.100
2023-03-13T17:09:22.451Z,1.299
2023-03-13T17:10:22.444Z,1.200
2023-03-13T17:13:22.751Z,1.399
2023-03-13T17:14:22.460Z,1.200
2023-03-13T17:15:23.068Z,1.399
2023-03-13T17:16:22.481Z,1.200
2023-03-13T17:17:22.465Z,1.399
2023-03-13T17:19:22.423Z,1.200
2023-03-13T17:21:23.217Z,1.299
2023-03-13T17:23:22.244Z,1.100
2023-03-13T17:24:22.740Z,1.299
2023-03-13T17:25:22.932Z,1.200
2023-03-13T17:26:22.777Z,1.299
2023-03-13T17:27:22.698Z,1.200
2023-03-13T17:28:22.585Z,1.399
2023-03-13T17:31:22.911Z,1.5
2023-03-13T17:32:22.360Z,1.100
2023-03-13T17:33:22.893Z,1.200
2023-03-13T17:34:22.848Z,1.299
2023-03-13T17:35:22.987Z,1.399
2023-03-13T17:37:22.286Z,1.100
2023-03-13T17:38:23.080Z,1.5
2023-03-13T17:39:22.779Z,1.399